Pagina principale
METAR-TAF:

METAR-TAF

Aeroporti :

Aeroporto di Annaba-Rabah Bitat

Annaba, Algeria

latitudine: 36-50N, longitudine: 007-49E, altezza: 4 m

Osservazione

Il bollettino è stato emesso 1 ora e 8 minuti fa, alle 13:00 UTC
Vento 9 kt da nord-est
Temperature 20°C
Umidità 60%
Pressione 1022 hPa
Visibilità 10 km o più
nessuna nube inferiore a 1500 m e nessun cumulonembo

METAR: DABB 021300Z 05009KT CAVOK 20/12 Q1022

Ora: 15:08 (14:08 UTC)

Previsione

Il bollettino è stato emesso 3 ore e 8 minuti fa, alle 11:00 UTC
Previsione valida dal 02 alle 12 UTC al 03 alle 12 UTC
Vento 10 kt da est
Visibilità: 8000 m
Probabilità 30% :
Temporaneamente
dal 02 alle 15 UTC al 02 alle 24 UTC
Vento 15 kt da est/sud-est con raffiche fino a 25 kt

TAF: DABB 021100Z 0212/0312 08010KT 8000 NSC PROB30 TEMPO 0215/0224 12015G25KT

Osservazioni e previsioni meteorologiche di più di 4000 aeroporti (messaggi METAR e TAF).

Le stazioni disponibili sono rappresentate dai dischi gialli e rossi sulla carta.

Puntare il mouse per vedere il nome della stazione.

Clicca sopra per visualizzare le osservazioni e previsioni meteorologiche.

Per cambiare la mappa : fare clic sui pulsanti verdi con una croce nera per ingrandire, il pulsante verde con un trattino per diminuire, o sulla freccia verde per le mappe adiacenti.


METAR-TAF: